Ringgold, Pennsylvania
Current Conditions -  °F | °C
As of 11:53 PM on Wednesday 17 Dec 2014 (Local Time) from KDUJ Reporting Station
Overcast Overcast  
Wind Chill: 14°   Ceiling: 3400
Heat Index: 26°   Visibility: 8mi
Dew Point: 22°   Wind: 16mph
Humidity: 84%   Direction: 260°W
Pressure: 30.01"   Gusts: 21mph
Location:  40.99°N, 79.17°W
Report Text: KDUJ 180453Z AUTO 26014G18KT 8SM FEW016 BKN034 OVC045 M03/M06 A3001 RMK AO2 SNE0357B33E46 SLP183 P0000 T10331056 400441033
Loading
Personal Weather Stations






























Interactive Weather Map New forecast layout! Learn more

10-Day Weather Forecast

Advertisements
Track Severe Weather on mobile